sensor_id;sensor_type;location;lat;lon;timestamp;P1;durP1;ratioP1;P2;durP2;ratioP2
61897;SDS011;47850;50.274;18.908;2023-07-28T00:02:25;4.30;;;2.00;;
61897;SDS011;47850;50.274;18.908;2023-07-28T00:04:53;3.30;;;1.90;;
61897;SDS011;47850;50.274;18.908;2023-07-28T00:07:21;2.40;;;1.70;;
61897;SDS011;47850;50.274;18.908;2023-07-28T00:09:48;2.80;;;1.70;;
61897;SDS011;47850;50.274;18.908;2023-07-28T00:12:16;4.40;;;1.70;;
61897;SDS011;47850;50.274;18.908;2023-07-28T00:14:44;2.70;;;1.80;;
61897;SDS011;47850;50.274;18.908;2023-07-28T00:17:12;2.40;;;1.60;;
61897;SDS011;47850;50.274;18.908;2023-07-28T00:19:40;3.00;;;1.70;;
61897;SDS011;47850;50.274;18.908;2023-07-28T00:22:07;6.50;;;2.00;;
61897;SDS011;47850;50.274;18.908;2023-07-28T00:24:35;3.70;;;1.70;;
61897;SDS011;47850;50.274;18.908;2023-07-28T00:27:03;4.40;;;2.00;;
61897;SDS011;47850;50.274;18.908;2023-07-28T00:29:31;3.30;;;1.60;;
61897;SDS011;47850;50.274;18.908;2023-07-28T00:31:59;3.60;;;1.70;;
61897;SDS011;47850;50.274;18.908;2023-07-28T00:34:27;2.50;;;1.80;;
61897;SDS011;47850;50.274;18.908;2023-07-28T00:36:55;2.20;;;1.30;;
61897;SDS011;47850;50.274;18.908;2023-07-28T00:39:23;5.70;;;1.80;;
61897;SDS011;47850;50.274;18.908;2023-07-28T00:41:50;2.60;;;1.80;;
61897;SDS011;47850;50.274;18.908;2023-07-28T00:44:18;3.10;;;1.80;;
61897;SDS011;47850;50.274;18.908;2023-07-28T00:46:46;3.70;;;1.60;;
61897;SDS011;47850;50.274;18.908;2023-07-28T00:49:14;3.10;;;1.50;;
61897;SDS011;47850;50.274;18.908;2023-07-28T00:51:42;3.00;;;1.60;;
61897;SDS011;47850;50.274;18.908;2023-07-28T00:54:10;4.20;;;1.40;;
61897;SDS011;47850;50.274;18.908;2023-07-28T00:56:39;2.30;;;1.20;;
61897;SDS011;47850;50.274;18.908;2023-07-28T00:59:07;7.10;;;1.90;;
61897;SDS011;47850;50.274;18.908;2023-07-28T01:01:34;2.70;;;1.40;;
61897;SDS011;47850;50.274;18.908;2023-07-28T01:04:02;4.20;;;1.70;;
61897;SDS011;47850;50.274;18.908;2023-07-28T01:06:41;4.30;;;1.80;;
61897;SDS011;47850;50.274;18.908;2023-07-28T01:09:13;2.30;;;1.50;;
61897;SDS011;47850;50.274;18.908;2023-07-28T01:11:55;2.10;;;1.50;;
61897;SDS011;47850;50.274;18.908;2023-07-28T01:14:24;4.70;;;1.70;;
61897;SDS011;47850;50.274;18.908;2023-07-28T01:16:53;4.30;;;1.60;;
61897;SDS011;47850;50.274;18.908;2023-07-28T01:19:20;5.00;;;1.50;;
61897;SDS011;47850;50.274;18.908;2023-07-28T01:27:51;2.70;;;1.60;;
61897;SDS011;47850;50.274;18.908;2023-07-28T01:30:20;4.30;;;1.70;;
61897;SDS011;47850;50.274;18.908;2023-07-28T01:32:48;3.30;;;1.70;;
61897;SDS011;47850;50.274;18.908;2023-07-28T01:35:16;2.60;;;1.80;;
61897;SDS011;47850;50.274;18.908;2023-07-28T01:37:44;3.30;;;1.60;;
61897;SDS011;47850;50.274;18.908;2023-07-28T01:40:12;2.60;;;1.70;;
61897;SDS011;47850;50.274;18.908;2023-07-28T01:42:40;2.60;;;1.50;;
61897;SDS011;47850;50.274;18.908;2023-07-28T01:45:08;2.70;;;1.80;;
61897;SDS011;47850;50.274;18.908;2023-07-28T01:47:36;3.30;;;1.60;;
61897;SDS011;47850;50.274;18.908;2023-07-28T01:50:04;2.20;;;1.50;;
61897;SDS011;47850;50.274;18.908;2023-07-28T01:52:32;3.90;;;1.50;;
61897;SDS011;47850;50.274;18.908;2023-07-28T01:55:00;2.40;;;1.60;;
61897;SDS011;47850;50.274;18.908;2023-07-28T01:57:30;4.40;;;1.80;;
61897;SDS011;47850;50.274;18.908;2023-07-28T02:00:00;3.70;;;1.70;;
61897;SDS011;47850;50.274;18.908;2023-07-28T02:02:30;2.90;;;1.70;;
61897;SDS011;47850;50.274;18.908;2023-07-28T02:04:58;6.70;;;3.10;;
61897;SDS011;47850;50.274;18.908;2023-07-28T02:07:26;6.10;;;1.80;;
61897;SDS011;47850;50.274;18.908;2023-07-28T02:09:54;2.40;;;1.80;;
61897;SDS011;47850;50.274;18.908;2023-07-28T02:12:22;3.70;;;1.50;;
61897;SDS011;47850;50.274;18.908;2023-07-28T02:14:50;4.10;;;1.60;;
61897;SDS011;47850;50.274;18.908;2023-07-28T02:17:18;2.70;;;1.40;;
61897;SDS011;47850;50.274;18.908;2023-07-28T02:19:46;5.40;;;1.60;;
61897;SDS011;47850;50.274;18.908;2023-07-28T02:22:14;3.00;;;1.90;;
61897;SDS011;47850;50.274;18.908;2023-07-28T02:24:42;3.50;;;1.90;;
61897;SDS011;47850;50.274;18.908;2023-07-28T02:27:10;5.30;;;1.50;;
61897;SDS011;47850;50.274;18.908;2023-07-28T02:29:38;3.40;;;2.10;;
61897;SDS011;47850;50.274;18.908;2023-07-28T02:32:06;3.50;;;1.70;;
61897;SDS011;47850;50.274;18.908;2023-07-28T02:34:34;3.30;;;1.60;;
61897;SDS011;47850;50.274;18.908;2023-07-28T02:37:02;2.60;;;1.70;;
61897;SDS011;47850;50.274;18.908;2023-07-28T02:39:30;4.20;;;2.00;;
61897;SDS011;47850;50.274;18.908;2023-07-28T02:41:57;3.00;;;1.60;;
61897;SDS011;47850;50.274;18.908;2023-07-28T02:44:25;6.20;;;1.80;;
61897;SDS011;47850;50.274;18.908;2023-07-28T02:46:53;3.80;;;1.80;;
61897;SDS011;47850;50.274;18.908;2023-07-28T02:49:21;4.50;;;1.80;;
61897;SDS011;47850;50.274;18.908;2023-07-28T02:51:48;5.00;;;1.80;;
61897;SDS011;47850;50.274;18.908;2023-07-28T02:54:16;4.10;;;1.70;;
61897;SDS011;47850;50.274;18.908;2023-07-28T02:56:44;3.30;;;1.90;;
61897;SDS011;47850;50.274;18.908;2023-07-28T02:59:11;4.20;;;1.90;;
61897;SDS011;47850;50.274;18.908;2023-07-28T03:01:39;2.90;;;1.50;;
61897;SDS011;47850;50.274;18.908;2023-07-28T03:04:07;2.40;;;1.70;;
61897;SDS011;47850;50.274;18.908;2023-07-28T03:06:35;3.20;;;1.60;;
61897;SDS011;47850;50.274;18.908;2023-07-28T03:09:02;2.60;;;1.60;;
61897;SDS011;47850;50.274;18.908;2023-07-28T03:11:30;2.60;;;1.60;;
61897;SDS011;47850;50.274;18.908;2023-07-28T03:13:58;3.20;;;1.80;;
61897;SDS011;47850;50.274;18.908;2023-07-28T03:16:26;5.10;;;1.70;;
61897;SDS011;47850;50.274;18.908;2023-07-28T03:18:54;3.20;;;1.90;;
61897;SDS011;47850;50.274;18.908;2023-07-28T03:21:21;3.80;;;1.70;;
61897;SDS011;47850;50.274;18.908;2023-07-28T03:23:49;3.50;;;1.90;;
61897;SDS011;47850;50.274;18.908;2023-07-28T03:26:17;3.20;;;1.70;;
61897;SDS011;47850;50.274;18.908;2023-07-28T03:28:45;3.30;;;1.60;;
61897;SDS011;47850;50.274;18.908;2023-07-28T03:31:13;7.30;;;2.30;;
61897;SDS011;47850;50.274;18.908;2023-07-28T03:33:40;2.40;;;2.00;;
61897;SDS011;47850;50.274;18.908;2023-07-28T03:36:08;3.20;;;1.70;;
61897;SDS011;47850;50.274;18.908;2023-07-28T03:38:36;4.50;;;1.80;;
61897;SDS011;47850;50.274;18.908;2023-07-28T03:41:04;4.50;;;1.70;;
61897;SDS011;47850;50.274;18.908;2023-07-28T03:43:32;2.70;;;1.90;;
61897;SDS011;47850;50.274;18.908;2023-07-28T03:46:00;2.30;;;1.70;;
61897;SDS011;47850;50.274;18.908;2023-07-28T03:48:28;4.20;;;1.80;;
61897;SDS011;47850;50.274;18.908;2023-07-28T03:50:55;4.30;;;2.10;;
61897;SDS011;47850;50.274;18.908;2023-07-28T03:53:23;3.20;;;1.90;;
61897;SDS011;47850;50.274;18.908;2023-07-28T03:55:51;5.30;;;1.80;;
61897;SDS011;47850;50.274;18.908;2023-07-28T03:58:19;3.30;;;1.50;;
61897;SDS011;47850;50.274;18.908;2023-07-28T04:00:47;4.40;;;2.00;;
61897;SDS011;47850;50.274;18.908;2023-07-28T04:03:15;3.80;;;1.60;;
61897;SDS011;47850;50.274;18.908;2023-07-28T04:05:43;5.20;;;1.80;;
61897;SDS011;47850;50.274;18.908;2023-07-28T04:08:10;3.30;;;1.70;;
61897;SDS011;47850;50.274;18.908;2023-07-28T04:10:38;2.30;;;1.60;;
61897;SDS011;47850;50.274;18.908;2023-07-28T04:13:06;2.20;;;1.30;;
61897;SDS011;47850;50.274;18.908;2023-07-28T04:15:34;2.80;;;1.80;;
61897;SDS011;47850;50.274;18.908;2023-07-28T04:18:01;3.00;;;1.90;;
61897;SDS011;47850;50.274;18.908;2023-07-28T04:20:29;3.10;;;2.00;;
61897;SDS011;47850;50.274;18.908;2023-07-28T04:22:58;3.20;;;1.80;;
61897;SDS011;47850;50.274;18.908;2023-07-28T04:25:25;4.60;;;1.70;;
61897;SDS011;47850;50.274;18.908;2023-07-28T04:27:53;2.90;;;1.80;;
61897;SDS011;47850;50.274;18.908;2023-07-28T04:30:22;3.00;;;1.80;;
61897;SDS011;47850;50.274;18.908;2023-07-28T04:32:49;4.70;;;2.10;;
61897;SDS011;47850;50.274;18.908;2023-07-28T04:35:17;5.00;;;2.20;;
61897;SDS011;47850;50.274;18.908;2023-07-28T04:37:45;2.30;;;1.60;;
61897;SDS011;47850;50.274;18.908;2023-07-28T04:40:13;4.00;;;1.80;;
61897;SDS011;47850;50.274;18.908;2023-07-28T04:42:41;4.50;;;1.90;;
61897;SDS011;47850;50.274;18.908;2023-07-28T04:45:08;5.40;;;2.10;;
61897;SDS011;47850;50.274;18.908;2023-07-28T04:47:37;3.70;;;1.80;;
61897;SDS011;47850;50.274;18.908;2023-07-28T04:50:04;4.00;;;1.70;;
61897;SDS011;47850;50.274;18.908;2023-07-28T04:52:33;5.10;;;1.90;;
61897;SDS011;47850;50.274;18.908;2023-07-28T04:55:00;2.60;;;1.60;;
61897;SDS011;47850;50.274;18.908;2023-07-28T04:57:28;3.60;;;1.60;;
61897;SDS011;47850;50.274;18.908;2023-07-28T04:59:56;2.30;;;1.40;;
61897;SDS011;47850;50.274;18.908;2023-07-28T05:02:24;2.30;;;1.40;;
61897;SDS011;47850;50.274;18.908;2023-07-28T05:04:51;4.30;;;1.80;;
61897;SDS011;47850;50.274;18.908;2023-07-28T05:07:19;3.10;;;1.60;;
61897;SDS011;47850;50.274;18.908;2023-07-28T05:09:47;2.50;;;1.10;;
61897;SDS011;47850;50.274;18.908;2023-07-28T05:12:15;2.90;;;1.60;;
61897;SDS011;47850;50.274;18.908;2023-07-28T05:14:43;2.90;;;1.70;;
61897;SDS011;47850;50.274;18.908;2023-07-28T05:17:11;2.20;;;1.60;;
61897;SDS011;47850;50.274;18.908;2023-07-28T05:19:38;3.60;;;1.90;;
61897;SDS011;47850;50.274;18.908;2023-07-28T05:22:06;3.70;;;1.60;;
61897;SDS011;47850;50.274;18.908;2023-07-28T05:24:34;3.10;;;1.70;;
61897;SDS011;47850;50.274;18.908;2023-07-28T05:27:02;3.10;;;1.60;;
61897;SDS011;47850;50.274;18.908;2023-07-28T05:29:29;2.20;;;1.50;;
61897;SDS011;47850;50.274;18.908;2023-07-28T05:32:00;3.80;;;1.70;;
61897;SDS011;47850;50.274;18.908;2023-07-28T05:34:29;4.10;;;2.10;;
61897;SDS011;47850;50.274;18.908;2023-07-28T05:36:57;2.70;;;1.80;;
61897;SDS011;47850;50.274;18.908;2023-07-28T05:39:25;3.30;;;2.10;;
61897;SDS011;47850;50.274;18.908;2023-07-28T05:41:53;13.80;;;2.50;;
61897;SDS011;47850;50.274;18.908;2023-07-28T05:44:20;16.10;;;2.80;;
61897;SDS011;47850;50.274;18.908;2023-07-28T05:46:48;13.90;;;3.10;;
61897;SDS011;47850;50.274;18.908;2023-07-28T05:49:16;3.00;;;2.10;;
61897;SDS011;47850;50.274;18.908;2023-07-28T05:51:44;5.00;;;2.10;;
61897;SDS011;47850;50.274;18.908;2023-07-28T05:54:12;5.40;;;2.10;;
61897;SDS011;47850;50.274;18.908;2023-07-28T05:56:43;5.90;;;2.30;;
61897;SDS011;47850;50.274;18.908;2023-07-28T05:59:11;11.50;;;2.70;;
61897;SDS011;47850;50.274;18.908;2023-07-28T06:01:39;4.50;;;2.30;;
61897;SDS011;47850;50.274;18.908;2023-07-28T06:04:06;4.30;;;2.40;;
61897;SDS011;47850;50.274;18.908;2023-07-28T06:06:34;7.50;;;2.20;;
61897;SDS011;47850;50.274;18.908;2023-07-28T06:09:02;6.70;;;2.40;;
61897;SDS011;47850;50.274;18.908;2023-07-28T06:11:30;6.40;;;2.50;;
61897;SDS011;47850;50.274;18.908;2023-07-28T06:13:57;5.00;;;2.40;;
61897;SDS011;47850;50.274;18.908;2023-07-28T06:16:25;3.90;;;2.40;;
61897;SDS011;47850;50.274;18.908;2023-07-28T06:18:53;4.80;;;2.60;;
61897;SDS011;47850;50.274;18.908;2023-07-28T06:21:21;3.30;;;2.50;;
61897;SDS011;47850;50.274;18.908;2023-07-28T06:23:48;4.90;;;2.60;;
61897;SDS011;47850;50.274;18.908;2023-07-28T06:26:16;2.90;;;2.30;;
61897;SDS011;47850;50.274;18.908;2023-07-28T06:28:44;5.20;;;2.90;;
61897;SDS011;47850;50.274;18.908;2023-07-28T06:31:12;5.40;;;2.50;;
61897;SDS011;47850;50.274;18.908;2023-07-28T06:33:40;3.60;;;2.60;;
61897;SDS011;47850;50.274;18.908;2023-07-28T06:36:08;4.30;;;2.80;;
61897;SDS011;47850;50.274;18.908;2023-07-28T06:38:36;4.30;;;2.80;;
61897;SDS011;47850;50.274;18.908;2023-07-28T06:41:04;3.60;;;2.60;;
61897;SDS011;47850;50.274;18.908;2023-07-28T06:43:32;3.80;;;2.30;;
61897;SDS011;47850;50.274;18.908;2023-07-28T06:45:59;5.70;;;2.80;;
61897;SDS011;47850;50.274;18.908;2023-07-28T06:48:27;5.30;;;3.30;;
61897;SDS011;47850;50.274;18.908;2023-07-28T06:50:55;3.60;;;2.20;;
61897;SDS011;47850;50.274;18.908;2023-07-28T06:53:23;3.10;;;2.20;;
61897;SDS011;47850;50.274;18.908;2023-07-28T06:55:50;3.70;;;2.40;;
61897;SDS011;47850;50.274;18.908;2023-07-28T06:58:18;4.90;;;2.50;;
61897;SDS011;47850;50.274;18.908;2023-07-28T07:00:46;3.30;;;2.20;;
61897;SDS011;47850;50.274;18.908;2023-07-28T07:03:15;3.50;;;2.30;;
61897;SDS011;47850;50.274;18.908;2023-07-28T07:05:43;4.20;;;2.50;;
61897;SDS011;47850;50.274;18.908;2023-07-28T07:08:11;4.90;;;2.60;;
61897;SDS011;47850;50.274;18.908;2023-07-28T07:10:39;3.40;;;2.20;;
61897;SDS011;47850;50.274;18.908;2023-07-28T07:13:07;3.50;;;1.90;;
61897;SDS011;47850;50.274;18.908;2023-07-28T07:15:34;4.90;;;2.90;;
61897;SDS011;47850;50.274;18.908;2023-07-28T07:18:03;5.70;;;2.70;;
61897;SDS011;47850;50.274;18.908;2023-07-28T07:20:33;5.70;;;2.70;;
61897;SDS011;47850;50.274;18.908;2023-07-28T07:23:02;4.00;;;2.40;;
61897;SDS011;47850;50.274;18.908;2023-07-28T07:25:30;3.60;;;2.30;;
61897;SDS011;47850;50.274;18.908;2023-07-28T07:27:58;4.80;;;2.40;;
61897;SDS011;47850;50.274;18.908;2023-07-28T07:30:26;4.70;;;2.10;;
61897;SDS011;47850;50.274;18.908;2023-07-28T07:32:53;3.50;;;2.40;;
61897;SDS011;47850;50.274;18.908;2023-07-28T07:35:21;4.40;;;2.40;;
61897;SDS011;47850;50.274;18.908;2023-07-28T07:37:49;4.40;;;2.80;;
61897;SDS011;47850;50.274;18.908;2023-07-28T07:40:17;6.30;;;3.00;;
61897;SDS011;47850;50.274;18.908;2023-07-28T07:42:48;6.70;;;4.50;;
61897;SDS011;47850;50.274;18.908;2023-07-28T07:45:16;6.50;;;3.90;;
61897;SDS011;47850;50.274;18.908;2023-07-28T07:47:44;4.50;;;3.60;;
61897;SDS011;47850;50.274;18.908;2023-07-28T07:50:12;5.80;;;3.40;;
61897;SDS011;47850;50.274;18.908;2023-07-28T07:52:41;4.80;;;3.00;;
61897;SDS011;47850;50.274;18.908;2023-07-28T07:55:09;6.40;;;3.10;;
61897;SDS011;47850;50.274;18.908;2023-07-28T07:57:40;5.60;;;3.00;;
61897;SDS011;47850;50.274;18.908;2023-07-28T08:00:09;4.90;;;2.80;;
61897;SDS011;47850;50.274;18.908;2023-07-28T08:02:38;4.10;;;2.80;;
61897;SDS011;47850;50.274;18.908;2023-07-28T08:05:06;5.00;;;2.50;;
61897;SDS011;47850;50.274;18.908;2023-07-28T08:07:35;7.10;;;3.60;;
61897;SDS011;47850;50.274;18.908;2023-07-28T08:10:03;7.20;;;3.70;;
61897;SDS011;47850;50.274;18.908;2023-07-28T08:12:31;6.50;;;3.40;;
61897;SDS011;47850;50.274;18.908;2023-07-28T08:14:59;7.90;;;4.20;;
61897;SDS011;47850;50.274;18.908;2023-07-28T08:17:27;4.70;;;3.50;;
61897;SDS011;47850;50.274;18.908;2023-07-28T08:19:55;6.00;;;4.00;;
61897;SDS011;47850;50.274;18.908;2023-07-28T08:22:23;6.90;;;4.70;;
61897;SDS011;47850;50.274;18.908;2023-07-28T08:24:53;7.70;;;4.00;;
61897;SDS011;47850;50.274;18.908;2023-07-28T08:27:20;10.40;;;4.60;;
61897;SDS011;47850;50.274;18.908;2023-07-28T08:29:48;7.60;;;4.30;;
61897;SDS011;47850;50.274;18.908;2023-07-28T08:32:16;7.40;;;4.30;;
61897;SDS011;47850;50.274;18.908;2023-07-28T08:34:44;7.60;;;4.50;;
61897;SDS011;47850;50.274;18.908;2023-07-28T08:37:12;8.00;;;3.20;;
61897;SDS011;47850;50.274;18.908;2023-07-28T08:39:40;5.70;;;3.40;;
61897;SDS011;47850;50.274;18.908;2023-07-28T08:42:08;6.00;;;3.40;;
61897;SDS011;47850;50.274;18.908;2023-07-28T08:44:36;6.10;;;3.70;;
61897;SDS011;47850;50.274;18.908;2023-07-28T08:47:04;6.20;;;3.70;;
61897;SDS011;47850;50.274;18.908;2023-07-28T08:49:33;4.10;;;3.30;;
61897;SDS011;47850;50.274;18.908;2023-07-28T08:52:03;5.50;;;3.70;;
61897;SDS011;47850;50.274;18.908;2023-07-28T08:54:32;5.40;;;3.50;;
61897;SDS011;47850;50.274;18.908;2023-07-28T08:57:00;5.90;;;3.40;;
61897;SDS011;47850;50.274;18.908;2023-07-28T08:59:28;6.50;;;3.90;;
61897;SDS011;47850;50.274;18.908;2023-07-28T09:01:57;4.80;;;3.40;;
61897;SDS011;47850;50.274;18.908;2023-07-28T09:04:26;4.50;;;2.80;;
61897;SDS011;47850;50.274;18.908;2023-07-28T09:06:55;4.80;;;2.90;;
61897;SDS011;47850;50.274;18.908;2023-07-28T09:09:23;5.00;;;2.80;;
61897;SDS011;47850;50.274;18.908;2023-07-28T09:11:51;5.30;;;3.00;;
61897;SDS011;47850;50.274;18.908;2023-07-28T09:14:21;6.30;;;3.30;;
61897;SDS011;47850;50.274;18.908;2023-07-28T09:16:52;3.50;;;2.50;;
61897;SDS011;47850;50.274;18.908;2023-07-28T09:19:20;3.50;;;2.30;;
61897;SDS011;47850;50.274;18.908;2023-07-28T09:21:58;4.10;;;2.60;;
61897;SDS011;47850;50.274;18.908;2023-07-28T09:24:31;5.50;;;2.70;;
61897;SDS011;47850;50.274;18.908;2023-07-28T09:27:00;4.80;;;2.90;;
61897;SDS011;47850;50.274;18.908;2023-07-28T09:29:30;4.30;;;3.00;;
61897;SDS011;47850;50.274;18.908;2023-07-28T09:32:04;3.70;;;2.80;;
61897;SDS011;47850;50.274;18.908;2023-07-28T09:34:33;3.40;;;2.50;;
61897;SDS011;47850;50.274;18.908;2023-07-28T09:37:01;5.90;;;2.70;;
61897;SDS011;47850;50.274;18.908;2023-07-28T09:39:32;7.30;;;2.80;;
61897;SDS011;47850;50.274;18.908;2023-07-28T09:42:03;3.90;;;2.10;;
61897;SDS011;47850;50.274;18.908;2023-07-28T09:44:36;8.90;;;5.50;;
61897;SDS011;47850;50.274;18.908;2023-07-28T09:47:04;3.40;;;2.10;;
61897;SDS011;47850;50.274;18.908;2023-07-28T09:49:39;5.10;;;2.80;;
61897;SDS011;47850;50.274;18.908;2023-07-28T09:52:09;4.40;;;2.70;;
61897;SDS011;47850;50.274;18.908;2023-07-28T09:54:39;6.80;;;3.10;;
61897;SDS011;47850;50.274;18.908;2023-07-28T09:57:12;5.20;;;2.90;;
61897;SDS011;47850;50.274;18.908;2023-07-28T09:59:41;5.80;;;2.60;;
61897;SDS011;47850;50.274;18.908;2023-07-28T10:02:10;5.20;;;2.50;;
61897;SDS011;47850;50.274;18.908;2023-07-28T10:04:38;4.30;;;2.70;;
61897;SDS011;47850;50.274;18.908;2023-07-28T10:07:07;3.90;;;2.60;;
61897;SDS011;47850;50.274;18.908;2023-07-28T10:09:36;5.50;;;2.20;;
61897;SDS011;47850;50.274;18.908;2023-07-28T10:12:05;4.20;;;2.30;;
61897;SDS011;47850;50.274;18.908;2023-07-28T10:14:35;3.60;;;2.60;;
61897;SDS011;47850;50.274;18.908;2023-07-28T10:17:05;3.80;;;2.20;;
61897;SDS011;47850;50.274;18.908;2023-07-28T10:19:33;4.20;;;2.40;;
61897;SDS011;47850;50.274;18.908;2023-07-28T10:22:11;3.30;;;2.10;;
61897;SDS011;47850;50.274;18.908;2023-07-28T10:27:35;3.20;;;2.00;;
61897;SDS011;47850;50.274;18.908;2023-07-28T10:30:12;3.70;;;2.40;;
61897;SDS011;47850;50.274;18.908;2023-07-28T10:32:42;4.10;;;2.60;;
61897;SDS011;47850;50.274;18.908;2023-07-28T10:37:45;5.00;;;2.50;;
61897;SDS011;47850;50.274;18.908;2023-07-28T10:45:23;2.60;;;2.00;;
61897;SDS011;47850;50.274;18.908;2023-07-28T10:47:52;5.20;;;1.90;;
61897;SDS011;47850;50.274;18.908;2023-07-28T10:50:27;3.00;;;2.10;;
61897;SDS011;47850;50.274;18.908;2023-07-28T10:52:56;2.90;;;1.90;;
61897;SDS011;47850;50.274;18.908;2023-07-28T10:55:25;3.70;;;2.20;;
61897;SDS011;47850;50.274;18.908;2023-07-28T10:57:54;2.90;;;1.90;;
61897;SDS011;47850;50.274;18.908;2023-07-28T11:00:25;2.60;;;1.90;;
61897;SDS011;47850;50.274;18.908;2023-07-28T11:02:54;3.30;;;2.00;;
61897;SDS011;47850;50.274;18.908;2023-07-28T11:05:29;2.60;;;1.60;;
61897;SDS011;47850;50.274;18.908;2023-07-28T11:07:58;5.60;;;1.90;;
61897;SDS011;47850;50.274;18.908;2023-07-28T11:10:31;1.70;;;1.60;;
61897;SDS011;47850;50.274;18.908;2023-07-28T11:13:00;3.30;;;1.90;;
61897;SDS011;47850;50.274;18.908;2023-07-28T11:15:30;3.80;;;2.00;;
61897;SDS011;47850;50.274;18.908;2023-07-28T11:17:59;4.20;;;1.80;;
61897;SDS011;47850;50.274;18.908;2023-07-28T11:20:27;6.80;;;1.50;;
61897;SDS011;47850;50.274;18.908;2023-07-28T11:22:57;1.80;;;1.40;;
61897;SDS011;47850;50.274;18.908;2023-07-28T11:25:27;3.50;;;2.10;;
61897;SDS011;47850;50.274;18.908;2023-07-28T11:27:57;3.70;;;1.80;;
61897;SDS011;47850;50.274;18.908;2023-07-28T11:30:28;3.20;;;1.90;;
61897;SDS011;47850;50.274;18.908;2023-07-28T11:32:56;2.30;;;1.70;;
61897;SDS011;47850;50.274;18.908;2023-07-28T11:35:25;3.60;;;2.00;;
61897;SDS011;47850;50.274;18.908;2023-07-28T11:37:53;2.10;;;1.50;;
61897;SDS011;47850;50.274;18.908;2023-07-28T11:40:22;4.20;;;1.80;;
61897;SDS011;47850;50.274;18.908;2023-07-28T11:42:55;2.50;;;1.80;;
61897;SDS011;47850;50.274;18.908;2023-07-28T11:45:24;2.50;;;1.70;;
61897;SDS011;47850;50.274;18.908;2023-07-28T11:47:55;2.00;;;1.50;;
61897;SDS011;47850;50.274;18.908;2023-07-28T11:50:28;2.80;;;1.60;;
61897;SDS011;47850;50.274;18.908;2023-07-28T11:55:25;3.00;;;1.50;;
61897;SDS011;47850;50.274;18.908;2023-07-28T11:57:54;2.10;;;1.60;;
61897;SDS011;47850;50.274;18.908;2023-07-28T12:00:31;3.60;;;1.70;;
61897;SDS011;47850;50.274;18.908;2023-07-28T12:03:07;1.80;;;1.40;;
61897;SDS011;47850;50.274;18.908;2023-07-28T12:05:40;2.90;;;1.40;;
61897;SDS011;47850;50.274;18.908;2023-07-28T12:08:10;3.30;;;1.30;;
61897;SDS011;47850;50.274;18.908;2023-07-28T12:10:49;1.80;;;1.30;;
61897;SDS011;47850;50.274;18.908;2023-07-28T12:13:22;1.70;;;1.10;;
61897;SDS011;47850;50.274;18.908;2023-07-28T12:15:54;1.30;;;1.10;;
61897;SDS011;47850;50.274;18.908;2023-07-28T12:18:22;1.40;;;1.00;;
61897;SDS011;47850;50.274;18.908;2023-07-28T12:20:51;2.20;;;1.30;;
61897;SDS011;47850;50.274;18.908;2023-07-28T12:23:21;3.20;;;2.30;;
61897;SDS011;47850;50.274;18.908;2023-07-28T12:25:50;2.00;;;1.10;;
61897;SDS011;47850;50.274;18.908;2023-07-28T12:28:18;1.80;;;1.00;;
61897;SDS011;47850;50.274;18.908;2023-07-28T12:30:46;2.50;;;1.20;;
61897;SDS011;47850;50.274;18.908;2023-07-28T12:33:16;2.20;;;1.50;;
61897;SDS011;47850;50.274;18.908;2023-07-28T12:35:47;1.90;;;1.30;;
61897;SDS011;47850;50.274;18.908;2023-07-28T12:38:15;1.70;;;1.30;;
61897;SDS011;47850;50.274;18.908;2023-07-28T12:40:43;1.90;;;1.30;;
61897;SDS011;47850;50.274;18.908;2023-07-28T12:43:13;1.70;;;1.20;;
61897;SDS011;47850;50.274;18.908;2023-07-28T12:45:43;3.40;;;1.30;;
61897;SDS011;47850;50.274;18.908;2023-07-28T12:48:11;5.20;;;1.60;;
61897;SDS011;47850;50.274;18.908;2023-07-28T12:50:39;2.30;;;1.20;;
61897;SDS011;47850;50.274;18.908;2023-07-28T12:53:07;2.90;;;1.20;;
61897;SDS011;47850;50.274;18.908;2023-07-28T12:55:35;4.00;;;1.20;;
61897;SDS011;47850;50.274;18.908;2023-07-28T12:58:04;2.30;;;1.20;;
61897;SDS011;47850;50.274;18.908;2023-07-28T13:00:32;2.70;;;1.30;;
61897;SDS011;47850;50.274;18.908;2023-07-28T13:03:01;4.00;;;1.30;;
61897;SDS011;47850;50.274;18.908;2023-07-28T13:05:29;2.10;;;1.30;;
61897;SDS011;47850;50.274;18.908;2023-07-28T13:07:57;6.20;;;1.30;;
61897;SDS011;47850;50.274;18.908;2023-07-28T13:10:25;2.90;;;1.20;;
61897;SDS011;47850;50.274;18.908;2023-07-28T13:12:53;1.50;;;1.10;;
61897;SDS011;47850;50.274;18.908;2023-07-28T13:15:23;2.60;;;0.90;;
61897;SDS011;47850;50.274;18.908;2023-07-28T13:17:51;1.70;;;1.10;;
61897;SDS011;47850;50.274;18.908;2023-07-28T13:20:19;3.60;;;1.60;;
61897;SDS011;47850;50.274;18.908;2023-07-28T13:22:46;2.00;;;1.30;;
61897;SDS011;47850;50.274;18.908;2023-07-28T13:25:14;1.70;;;1.00;;
61897;SDS011;47850;50.274;18.908;2023-07-28T13:27:42;2.00;;;0.90;;
61897;SDS011;47850;50.274;18.908;2023-07-28T13:30:10;1.90;;;1.10;;
61897;SDS011;47850;50.274;18.908;2023-07-28T13:32:38;1.60;;;1.00;;
61897;SDS011;47850;50.274;18.908;2023-07-28T13:35:06;1.30;;;1.00;;
61897;SDS011;47850;50.274;18.908;2023-07-28T13:37:35;2.60;;;1.00;;
61897;SDS011;47850;50.274;18.908;2023-07-28T13:40:03;1.80;;;0.80;;
61897;SDS011;47850;50.274;18.908;2023-07-28T13:42:31;5.00;;;1.00;;
61897;SDS011;47850;50.274;18.908;2023-07-28T13:44:59;2.10;;;1.00;;
61897;SDS011;47850;50.274;18.908;2023-07-28T13:47:26;2.10;;;1.20;;
61897;SDS011;47850;50.274;18.908;2023-07-28T13:49:54;1.00;;;0.90;;
61897;SDS011;47850;50.274;18.908;2023-07-28T13:52:22;4.20;;;1.50;;
61897;SDS011;47850;50.274;18.908;2023-07-28T13:54:50;2.00;;;1.40;;
61897;SDS011;47850;50.274;18.908;2023-07-28T13:57:18;1.60;;;1.00;;
61897;SDS011;47850;50.274;18.908;2023-07-28T13:59:46;3.20;;;1.10;;
61897;SDS011;47850;50.274;18.908;2023-07-28T14:02:15;1.00;;;0.90;;
61897;SDS011;47850;50.274;18.908;2023-07-28T14:04:45;1.40;;;0.90;;
61897;SDS011;47850;50.274;18.908;2023-07-28T14:07:13;2.60;;;1.10;;
61897;SDS011;47850;50.274;18.908;2023-07-28T14:09:40;2.00;;;0.90;;
61897;SDS011;47850;50.274;18.908;2023-07-28T14:12:08;1.50;;;0.90;;
61897;SDS011;47850;50.274;18.908;2023-07-28T14:14:36;1.80;;;1.30;;
61897;SDS011;47850;50.274;18.908;2023-07-28T14:17:04;2.30;;;1.30;;
61897;SDS011;47850;50.274;18.908;2023-07-28T14:19:32;1.80;;;1.00;;
61897;SDS011;47850;50.274;18.908;2023-07-28T14:22:00;2.60;;;1.00;;
61897;SDS011;47850;50.274;18.908;2023-07-28T14:24:28;1.40;;;1.00;;
61897;SDS011;47850;50.274;18.908;2023-07-28T14:26:55;3.10;;;1.20;;
61897;SDS011;47850;50.274;18.908;2023-07-28T14:29:23;6.50;;;1.30;;
61897;SDS011;47850;50.274;18.908;2023-07-28T14:31:51;4.90;;;1.30;;
61897;SDS011;47850;50.274;18.908;2023-07-28T14:34:19;2.10;;;1.40;;
61897;SDS011;47850;50.274;18.908;2023-07-28T14:36:47;2.70;;;1.50;;
61897;SDS011;47850;50.274;18.908;2023-07-28T14:39:15;4.00;;;1.60;;
61897;SDS011;47850;50.274;18.908;2023-07-28T14:41:42;2.80;;;1.90;;
61897;SDS011;47850;50.274;18.908;2023-07-28T14:44:10;3.90;;;2.00;;
61897;SDS011;47850;50.274;18.908;2023-07-28T14:46:38;2.90;;;1.70;;
61897;SDS011;47850;50.274;18.908;2023-07-28T14:49:06;4.00;;;1.70;;
61897;SDS011;47850;50.274;18.908;2023-07-28T14:51:33;1.90;;;1.40;;
61897;SDS011;47850;50.274;18.908;2023-07-28T14:54:01;4.10;;;1.30;;
61897;SDS011;47850;50.274;18.908;2023-07-28T14:56:29;2.10;;;1.30;;
61897;SDS011;47850;50.274;18.908;2023-07-28T14:58:57;2.60;;;1.10;;
61897;SDS011;47850;50.274;18.908;2023-07-28T15:01:28;1.70;;;1.30;;